Latest Weather Observations for North Head

IDN60801

Issued at 5:35 am EST Friday 22 August 2014 (issued every 30 minutes, with the page automatically refreshed every 10 minutes)

About weather observations | Map of weather stations | Latest weather observations for NSW | Other Formats
Station Details ID: 066197 Name: NORTH HEAD Lat: -33.82 Lon: 151.30 Height: 90.0 m
Data from the previous 72 hours. | See also: Recent months for locations in New South Wales
Date/Time
EST
Temp
°C
App
Temp
°C
Dew
Point
Rel
Hum
%
Delta-T
°C
Wind Press
QNH
hPa
Press
MSL
hPa
Rain
since 9 am
mm
Dir
 
Spd
km/h
Gust
km/h
Spd
kts
Gust
kts
22/05:30am - - - - - W 9 13 5 7 - - -
22/05:00am - - - - - W 7 11 4 6 - - -
22/04:30am - - - - - W 6 7 3 4 - - -
22/04:00am - - - - - SW 6 9 3 5 - - -
22/03:30am - - - - - SSE 7 11 4 6 - - -
22/03:00am - - - - - SE 11 19 6 10 - - -
22/02:30am - - - - - ESE 11 17 6 9 - - -
22/02:00am - - - - - ESE 15 22 8 12 - - -
22/01:30am - - - - - ESE 20 30 11 16 - - -
22/01:00am - - - - - SE 13 28 7 15 - - -
22/12:30am - - - - - SSE 11 22 6 12 - - -
22/12:00am - - - - - SSE 17 26 9 14 - - -
 
Date/Time
EST
Temp
°C
App
Temp
°C
Dew
Point
Rel
Hum
%
Delta-T
°C
Wind Press
QNH
hPa
Press
MSL
hPa
Rain
since 9 am
mm
Dir
 
Spd
km/h
Gust
km/h
Spd
kts
Gust
kts
21/11:30pm - - - - - SE 17 30 9 16 - - -
21/11:00pm - - - - - ESE 15 26 8 14 - - -
21/10:30pm - - - - - ESE 22 39 12 21 - - -
21/10:00pm - - - - - ESE 22 30 12 16 - - -
21/09:38pm - - - - - ESE 28 46 15 25 - - -
21/09:30pm - - - - - ESE 24 33 13 18 - - -
21/09:00pm - - - - - SE 22 33 12 18 - - -
21/08:30pm - - - - - SE 22 35 12 19 - - -
21/08:00pm - - - - - SSE 24 35 13 19 - - -
21/07:30pm - - - - - SSE 24 33 13 18 - - -
21/07:00pm - - - - - SSE 22 35 12 19 - - -
21/06:30pm - - - - - SSE 24 37 13 20 - - -
21/06:00pm - - - - - SSE 24 32 13 17 - - -
21/05:30pm - - - - - SSE 17 24 9 13 - - -
21/05:00pm - - - - - SSE 28 41 15 22 - - -
21/04:30pm - - - - - S 20 33 11 18 - - -
21/04:00pm - - - - - S 24 41 13 22 - - -
21/03:30pm - - - - - S 22 35 12 19 - - -
21/03:00pm - - - - - S 22 37 12 20 - - -
21/02:30pm - - - - - S 20 32 11 17 - - -
21/02:00pm - - - - - S 20 33 11 18 - - -
21/01:30pm - - - - - S 19 37 10 20 - - -
21/01:00pm - - - - - S 20 30 11 16 - - -
21/12:30pm - - - - - S 22 32 12 17 - - -
21/12:00pm - - - - - S 17 26 9 14 - - -
21/11:30am - - - - - S 17 26 9 14 - - -
21/11:00am - - - - - SSW 13 24 7 13 - - -
21/10:30am - - - - - SW 11 19 6 10 - - -
21/10:00am - - - - - SW 13 20 7 11 - - -
21/09:30am - - - - - W 7 13 4 7 - - -
21/09:00am - - - - - W 11 15 6 8 - - -
21/08:30am - - - - - WSW 11 17 6 9 - - -
21/08:00am - - - - - W 13 19 7 10 - - -
21/07:30am - - - - - W 11 17 6 9 - - -
21/07:00am - - - - - W 13 17 7 9 - - -
21/06:30am - - - - - W 11 15 6 8 - - -
21/06:00am - - - - - W 13 19 7 10 - - -
21/05:30am - - - - - WNW 9 15 5 8 - - -
21/05:00am - - - - - WNW 11 15 6 8 - - -
21/04:30am - - - - - W 9 11 5 6 - - -
21/04:00am - - - - - W 11 15 6 8 - - -
21/03:30am - - - - - WSW 7 11 4 6 - - -
21/03:00am - - - - - WSW 11 17 6 9 - - -
21/02:30am - - - - - W 7 9 4 5 - - -
21/02:00am - - - - - WSW 7 11 4 6 - - -
21/01:30am - - - - - SW 9 19 5 10 - - -
21/01:00am - - - - - WSW 7 11 4 6 - - -
21/12:30am - - - - - SSW 15 20 8 11 - - -
21/12:00am - - - - - SSE 22 30 12 16 - - -
 
Date/Time
EST
Temp
°C
App
Temp
°C
Dew
Point
Rel
Hum
%
Delta-T
°C
Wind Press
QNH
hPa
Press
MSL
hPa
Rain
since 9 am
mm
Dir
 
Spd
km/h
Gust
km/h
Spd
kts
Gust
kts
20/11:30pm - - - - - SSE 22 32 12 17 - - -
20/11:00pm - - - - - SSE 24 35 13 19 - - -
20/10:35pm - - - - - SSE 28 52 15 28 - - -
20/10:30pm - - - - - S 20 41 11 22 - - -
20/10:00pm - - - - - SSE 19 28 10 15 - - -
20/09:30pm - - - - - SSE 24 39 13 21 - - -
20/09:00pm - - - - - S 24 35 13 19 - - -
20/08:30pm - - - - - SSE 24 35 13 19 - - -
20/08:00pm - - - - - SSE 26 39 14 21 - - -
20/07:30pm - - - - - S 19 32 10 17 - - -
20/07:00pm - - - - - S 20 30 11 16 - - -
20/06:30pm - - - - - S 22 33 12 18 - - -
20/06:00pm - - - - - S 20 35 11 19 - - -
20/05:30pm - - - - - S 20 33 11 18 - - -
20/05:00pm - - - - - S 22 39 12 21 - - -
20/04:30pm - - - - - S 24 35 13 19 - - -
20/04:00pm - - - - - S 20 32 11 17 - - -
20/03:30pm - - - - - S 20 32 11 17 - - -
20/03:00pm - - - - - S 19 33 10 18 - - -
20/02:30pm - - - - - S 20 37 11 20 - - -
20/02:00pm - - - - - S 22 43 12 23 - - -
20/01:30pm - - - - - S 20 37 11 20 - - -
20/01:00pm - - - - - S 24 46 13 25 - - -
20/12:30pm - - - - - SSW 22 33 12 18 - - -
20/12:00pm - - - - - S 24 46 13 25 - - -
20/11:30am - - - - - SW 22 33 12 18 - - -
20/11:00am - - - - - SSW 22 35 12 19 - - -
20/10:30am - - - - - SSW 22 39 12 21 - - -
20/10:00am - - - - - SW 19 28 10 15 - - -
20/09:30am - - - - - SW 17 28 9 15 - - -
20/09:00am - - - - - WSW 19 30 10 16 - - -
20/08:30am - - - - - W 19 28 10 15 - - -
20/08:00am - - - - - WSW 20 32 11 17 - - -
20/07:30am - - - - - W 17 30 9 16 - - -
20/07:00am - - - - - W 19 32 10 17 - - -
20/06:30am - - - - - WSW 22 32 12 17 - - -
20/06:00am - - - - - W 19 30 10 16 - - -
20/05:30am - - - - - WSW 20 30 11 16 - - -
20/05:00am - - - - - WSW 19 32 10 17 - - -
20/04:30am - - - - - W 20 28 11 15 - - -
20/04:00am - - - - - W 20 30 11 16 - - -
20/03:30am - - - - - W 19 24 10 13 - - -
20/03:00am - - - - - WSW 19 26 10 14 - - -
20/02:30am - - - - - WSW 19 30 10 16 - - -
20/02:00am - - - - - WSW 19 26 10 14 - - -
20/01:30am - - - - - SW 22 35 12 19 - - -
20/01:00am - - - - - SW 22 35 12 19 - - -
20/12:30am - - - - - SW 22 35 12 19 - - -
20/12:00am - - - - - SW 24 33 13 18 - - -
 
Date/Time
EST
Temp
°C
App
Temp
°C
Dew
Point
Rel
Hum
%
Delta-T
°C
Wind Press
QNH
hPa
Press
MSL
hPa
Rain
since 9 am
mm
Dir
 
Spd
km/h
Gust
km/h
Spd
kts
Gust
kts
19/11:30pm - - - - - SW 24 41 13 22 - - -
19/11:00pm - - - - - SW 24 43 13 23 - - -
19/10:30pm - - - - - SW 22 37 12 20 - - -
19/10:00pm - - - - - SSW 20 37 11 20 - - -
19/09:42pm - - - - - S 28 48 15 26 - - -
19/09:30pm - - - - - SSW 26 48 14 26 - - -
19/09:26pm - - - - - SSW 28 48 15 26 - - -
19/09:00pm - - - - - SSW 28 44 15 24 - - -
19/08:30pm - - - - - SSW 28 48 15 26 - - -
19/08:00pm - - - - - S 28 50 15 27 - - -
19/07:42pm - - - - - SSW 28 50 15 27 - - -
19/07:30pm - - - - - SSW 30 46 16 25 - - -
19/07:07pm - - - - - SSW 28 48 15 26 - - -
19/07:00pm - - - - - SSW 20 39 11 21 - - -
19/06:30pm - - - - - SSW 28 46 15 25 - - -
19/06:00pm - - - - - SSW 30 52 16 28 - - -
19/05:30pm - - - - - SSW 32 54 17 29 - - -
19/05:00pm - - - - - SW 30 52 16 28 - - -
19/04:41pm - - - - - SSW 28 48 15 26 - - -
19/04:30pm - - - - - SW 24 39 13 21 - - -
19/04:05pm - - - - - SSW 28 50 15 27 - - -
19/04:00pm - - - - - SSW 24 39 13 21 - - -
19/03:30pm - - - - - SSW 26 48 14 26 - - -
19/03:00pm - - - - - S 32 50 17 27 - - -
19/02:34pm - - - - - S 28 50 15 27 - - -
19/02:30pm - - - - - S 20 41 11 22 - - -
19/02:00pm - - - - - SSW 30 46 16 25 - - -
19/01:30pm - - - - - S 30 56 16 30 - - -
19/01:00pm - - - - - S 32 50 17 27 - - -
19/12:54pm - - - - - S 30 50 16 27 - - -
19/12:30pm - - - - - SSW 24 46 13 25 - - -
19/12:00pm - - - - - SSW 30 63 16 34 - - -
19/11:58am - - - - - SSW 30 63 16 34 - - -
19/11:30am - - - - - SSW 28 44 15 24 - - -
19/11:04am - - - - - S 28 52 15 28 - - -
19/11:00am - - - - - S 26 35 14 19 - - -
19/10:30am - - - - - SW 22 37 12 20 - - -
19/10:00am - - - - - S 30 50 16 27 - - -
19/09:30am - - - - - S 28 52 15 28 - - -
19/09:00am - - - - - S 32 50 17 27 - - -
19/08:30am - - - - - S 32 57 17 31 - - -
19/08:22am - - - - - S 28 48 15 26 - - -
19/08:00am - - - - - S 32 44 17 24 - - -
19/07:30am - - - - - SSE 44 65 24 35 - - -
19/07:10am - - - - - S 32 57 17 31 - - -
19/07:00am - - - - - S 32 46 17 25 - - -
19/06:30am - - - - - S 39 70 21 38 - - -
19/06:00am - - - - - S 35 57 19 31 - - -

Other Formats:

Comma delimited format used in spreadsheet applications
http://www.bom.gov.au/fwo/IDN60801/IDN60801.95768.axf

JavaScript Object Notation format (JSON) in row-major order
http://www.bom.gov.au/fwo/IDN60801/IDN60801.95768.json